Time;durP1;ratioP1;P1;durP2;ratioP2;P2;SDS_P1;SDS_P2;PMS_P1;PMS_P2;Temp;Humidity;BMP_temperature;BMP_pressure;BME280_temperature;BME280_humidity;BME280_pressure;Samples;Min_cycle;Max_cycle;Signal;HPM_P1;HPM_P2
2022/04/24 00:00:32;;;;;;;1.70;1.60;;;;;;;19.97;44.72;100440.41;5144284;28;20101;-46
2022/04/24 00:02:57;;;;;;;2.22;1.48;;;;;;;20.06;44.84;100454.66;5144236;27;20030;-45
2022/04/24 00:05:23;;;;;;;1.85;1.60;;;;;;;19.94;44.60;100427.28;5142949;28;20400;-47
2022/04/24 00:07:48;;;;;;;1.67;1.58;;;;;;;20.06;44.52;100440.31;5144061;28;20054;-44
2022/04/24 00:10:13;;;;;;;1.75;1.65;;;;;;;19.96;44.37;100427.09;5144126;28;20020;-45
2022/04/24 00:12:38;;;;;;;1.73;1.58;;;;;;;20.05;44.68;100438.63;5142390;28;20094;-49
2022/04/24 00:15:05;;;;;;;1.70;1.30;;;;;;;20.04;44.71;100443.19;5142893;28;20019;-49
2022/04/24 00:17:30;;;;;;;1.85;1.60;;;;;;;20.05;44.46;100438.63;5144271;27;20031;-46
2022/04/24 00:19:55;;;;;;;1.95;1.80;;;;;;;20.02;44.69;100437.16;5143559;28;20042;-45
2022/04/24 00:22:21;;;;;;;1.52;1.30;;;;;;;19.94;44.72;100423.75;5125735;28;20049;-44
2022/04/24 00:24:46;;;;;;;1.48;1.38;;;;;;;20.01;44.46;100432.78;5144412;28;20016;-46
2022/04/24 00:27:12;;;;;;;2.08;1.67;;;;;;;20.04;44.29;100442.34;5125351;28;20035;-48
2022/04/24 00:29:37;;;;;;;1.98;1.80;;;;;;;19.92;44.54;100425.78;5144210;28;20043;-46
2022/04/24 00:32:03;;;;;;;1.63;1.50;;;;;;;20.02;44.56;100437.16;5144169;28;20019;-47
2022/04/24 00:34:29;;;;;;;1.95;1.55;;;;;;;20.00;44.67;100441.88;5143464;28;20034;-47
2022/04/24 00:36:54;;;;;;;2.17;1.80;;;;;;;19.91;44.64;100422.25;5144061;28;20027;-46
2022/04/24 00:39:19;;;;;;;1.70;1.60;;;;;;;19.91;44.41;100416.03;5143661;28;20027;-45
2022/04/24 00:41:45;;;;;;;1.80;1.70;;;;;;;20.01;44.19;100434.63;5143627;28;20051;-47
2022/04/24 00:44:10;;;;;;;3.17;2.17;;;;;;;20.00;44.25;100435.66;5125114;28;20082;-47
2022/04/24 00:46:39;;;;;;;2.03;1.55;;;;;;;19.99;44.20;100432.13;5147630;27;20023;-45
2022/04/24 00:49:04;;;;;;;1.73;1.48;;;;;;;19.98;44.66;100433.16;5128512;27;20072;-47
2022/04/24 00:51:29;;;;;;;1.55;1.40;;;;;;;19.90;44.19;100422.47;5129324;27;20035;-47
2022/04/24 00:53:55;;;;;;;1.52;1.42;;;;;;;19.99;44.51;100434.81;5111779;27;20023;-50
2022/04/24 00:56:22;;;;;;;1.67;1.58;;;;;;;19.98;44.14;100438.56;5147842;27;20034;-48
2022/04/24 00:58:47;;;;;;;2.00;1.80;;;;;;;19.97;44.50;100435.03;5111604;27;20035;-47
2022/04/24 01:01:13;;;;;;;2.28;1.80;;;;;;;19.95;44.45;100430.81;5112050;27;20037;-45
2022/04/24 01:03:39;;;;;;;1.70;1.50;;;;;;;19.85;44.29;100409.53;5128311;27;20038;-48
2022/04/24 01:06:04;;;;;;;1.77;1.60;;;;;;;19.97;43.88;100426.94;5147822;27;20019;-48
2022/04/24 01:08:30;;;;;;;1.40;1.30;;;;;;;19.86;44.24;100413.91;5128553;27;20019;-52
2022/04/24 01:10:55;;;;;;;1.75;1.63;;;;;;;19.96;44.16;100417.16;5147490;27;20027;-50
2022/04/24 01:13:20;;;;;;;1.60;1.50;;;;;;;19.97;44.33;100434.19;5146436;27;20023;-48
2022/04/24 01:15:45;;;;;;;1.60;1.50;;;;;;;19.96;43.94;100421.69;5147360;27;20027;-51
2022/04/24 01:18:11;;;;;;;1.90;1.70;;;;;;;19.96;44.01;100424.38;5128720;27;20023;-46
2022/04/24 01:20:36;;;;;;;1.65;1.55;;;;;;;19.96;44.17;100427.97;5146700;27;20038;-47
2022/04/24 01:23:02;;;;;;;1.55;1.45;;;;;;;19.96;44.22;100424.38;5146876;27;20106;-45
2022/04/24 01:25:27;;;;;;;2.58;1.92;;;;;;;19.95;43.99;100428.97;5111850;27;20030;-48
2022/04/24 01:27:52;;;;;;;1.60;1.50;;;;;;;19.95;43.77;100418.16;5146344;27;20031;-47
2022/04/24 01:30:17;;;;;;;1.77;1.52;;;;;;;19.94;44.03;100418.34;5111471;27;20035;-48
2022/04/24 01:32:43;;;;;;;2.00;1.77;;;;;;;19.95;43.65;100422.72;5128448;27;20023;-49
2022/04/24 01:35:08;;;;;;;1.83;1.60;;;;;;;19.94;43.96;100427.28;5110635;27;20109;-48
2022/04/24 01:37:34;;;;;;;2.17;1.83;;;;;;;19.94;44.21;100426.47;5146742;27;20060;-51
2022/04/24 01:39:59;;;;;;;2.03;1.83;;;;;;;19.94;43.98;100423.75;5146158;27;20047;-50
2022/04/24 01:42:24;;;;;;;1.75;1.60;;;;;;;19.94;43.90;100426.47;5127576;27;20031;-50
2022/04/24 01:44:50;;;;;;;2.47;1.63;;;;;;;19.93;44.02;100427.50;5129779;27;20039;-50
2022/04/24 01:47:15;;;;;;;2.13;1.73;;;;;;;19.93;43.97;100428.31;5145371;27;20023;-46
2022/04/24 01:49:41;;;;;;;1.65;1.55;;;;;;;19.84;43.73;100413.25;5125945;27;20019;-49
2022/04/24 01:52:06;;;;;;;1.58;1.48;;;;;;;19.92;43.80;100432.06;5127601;27;20118;-44
2022/04/24 01:54:31;;;;;;;1.75;1.65;;;;;;;19.84;43.70;100418.66;5127421;27;20023;-47
2022/04/24 01:56:57;;;;;;;1.85;1.73;;;;;;;19.91;43.76;100433.06;5127148;27;20027;-46
2022/04/24 01:59:22;;;;;;;1.60;1.50;;;;;;;19.92;43.76;100433.88;5127772;27;20023;-47
2022/04/24 02:01:47;;;;;;;1.83;1.63;;;;;;;19.82;43.64;100427.94;5127730;27;20105;-49
2022/04/24 02:04:13;;;;;;;1.80;1.60;;;;;;;19.91;43.76;100441.16;5146026;27;20012;-47
2022/04/24 02:06:38;;;;;;;2.03;1.80;;;;;;;19.91;43.63;100437.63;5128341;27;20034;-47
2022/04/24 02:09:03;;;;;;;1.67;1.55;;;;;;;19.90;43.71;100438.66;5145662;27;20463;-46
2022/04/24 02:11:29;;;;;;;1.70;1.60;;;;;;;19.81;43.47;100415.50;5146396;27;20027;-47
2022/04/24 02:13:54;;;;;;;1.67;1.52;;;;;;;19.88;43.72;100436.16;5109390;27;20027;-44
2022/04/24 02:16:19;;;;;;;1.67;1.58;;;;;;;19.79;43.74;100418.34;5146363;27;20038;-48
2022/04/24 02:18:44;;;;;;;1.67;1.58;;;;;;;19.87;43.50;100430.91;5145405;27;20076;-44
2022/04/24 02:21:10;;;;;;;2.00;1.50;;;;;;;19.84;43.70;100432.16;5146017;27;20031;-44
2022/04/24 02:23:35;;;;;;;1.98;1.60;;;;;;;19.87;43.89;100428.22;5145739;27;20038;-46
2022/04/24 02:26:01;;;;;;;2.17;1.77;;;;;;;19.77;43.57;100414.19;5145960;27;20027;-45
2022/04/24 02:28:26;;;;;;;1.67;1.58;;;;;;;19.87;43.44;100430.91;5145100;27;20051;-47
2022/04/24 02:30:51;;;;;;;1.65;1.55;;;;;;;19.86;43.77;100429.25;5145689;27;20023;-47
2022/04/24 02:33:17;;;;;;;2.25;1.75;;;;;;;19.84;43.57;100432.16;5115334;28;20024;-50
2022/04/24 02:35:42;;;;;;;1.52;1.40;;;;;;;19.84;43.63;100424.06;5124722;28;20024;-48
2022/04/24 02:38:07;;;;;;;1.95;1.45;;;;;;;19.84;43.56;100426.75;5124348;28;20456;-46
2022/04/24 02:40:34;;;;;;;1.83;1.73;;;;;;;19.82;43.44;100428.78;5124887;28;20056;-48
2022/04/24 02:42:59;;;;;;;2.15;1.95;;;;;;;19.83;43.57;100424.22;5140850;27;20519;-50
2022/04/24 02:45:25;;;;;;;1.75;1.50;;;;;;;19.73;43.67;100406.47;5133655;27;20030;-45
2022/04/24 02:47:50;;;;;;;1.52;1.35;;;;;;;19.78;43.38;100414.00;5126935;27;20015;-47
2022/04/24 02:50:16;;;;;;;2.15;1.40;;;;;;;19.84;43.21;100431.31;5144686;27;20027;-46
2022/04/24 02:52:49;;;;;;;1.65;1.40;;;;;;;19.81;43.33;100420.88;5126796;27;20023;-48
2022/04/24 02:55:15;;;;;;;1.60;1.50;;;;;;;19.70;43.28;100405.97;5126830;27;20033;-46
2022/04/24 02:57:41;;;;;;;1.90;1.67;;;;;;;19.81;43.51;100424.41;5126217;27;20031;-48
2022/04/24 03:00:07;;;;;;;1.70;1.40;;;;;;;19.81;43.39;100428.97;5109783;27;20057;-44
2022/04/24 03:02:41;;;;;;;1.50;1.40;;;;;;;19.81;43.25;100424.41;5145056;27;20617;-47
2022/04/24 03:05:11;;;;;;;1.60;1.50;;;;;;;19.79;43.47;100434.53;5125844;27;20027;-44
2022/04/24 03:07:36;;;;;;;1.70;1.60;;;;;;;19.70;43.22;100414.06;5126134;27;20039;-48
2022/04/24 03:10:02;;;;;;;4.60;2.03;;;;;;;19.79;43.34;100431.84;5144678;27;20034;-47
2022/04/24 03:12:30;;;;;;;1.63;1.42;;;;;;;19.67;43.38;100412.59;5144376;27;20023;-45
2022/04/24 03:14:56;;;;;;;1.47;1.37;;;;;;;19.78;43.33;100434.72;5109219;27;20027;-49
2022/04/24 03:17:21;;;;;;;1.20;1.10;;;;;;;19.77;43.36;100442.00;5126601;27;20023;-45
2022/04/24 03:19:46;;;;;;;1.63;1.40;;;;;;;19.77;43.14;100436.59;5144288;27;20052;-49
2022/04/24 03:22:11;;;;;;;2.03;1.55;;;;;;;19.76;43.53;100432.22;5144896;27;20086;-52
2022/04/24 03:24:37;;;;;;;1.48;1.30;;;;;;;19.65;43.01;100411.94;5144791;27;20027;-49
2022/04/24 03:27:03;;;;;;;1.40;1.20;;;;;;;19.76;43.20;100426.84;5125771;27;20030;-47
2022/04/24 03:29:29;;;;;;;1.50;1.30;;;;;;;19.75;43.17;100427.00;5144704;27;20094;-47
2022/04/24 03:31:54;;;;;;;1.20;1.10;;;;;;;19.75;43.37;100435.09;5126520;27;20019;-49
2022/04/24 03:34:19;;;;;;;1.38;1.27;;;;;;;19.72;43.01;100430.94;5125630;27;20015;-47
2022/04/24 03:36:44;;;;;;;1.90;1.27;;;;;;;19.72;42.90;100442.56;5126439;28;20027;-45
2022/04/24 03:39:10;;;;;;;1.58;1.33;;;;;;;19.63;43.34;100424.78;5125877;28;20053;-50
2022/04/24 03:41:35;;;;;;;1.52;1.30;;;;;;;19.72;43.39;100436.31;5127497;27;20096;-49
2022/04/24 03:44:00;;;;;;;1.73;1.27;;;;;;;19.71;43.30;100434.66;5125168;27;20043;-47
2022/04/24 03:46:25;;;;;;;2.08;1.50;;;;;;;19.69;43.26;100431.28;5126119;28;20034;-46
2022/04/24 03:48:51;;;;;;;1.38;1.20;;;;;;;19.68;43.15;100433.16;5108371;28;20031;-46
2022/04/24 03:51:16;;;;;;;1.33;1.23;;;;;;;19.67;43.26;100431.50;5144499;28;20046;-44
2022/04/24 03:53:41;;;;;;;2.22;1.60;;;;;;;19.68;43.07;100430.47;5144357;28;20035;-47
2022/04/24 03:56:06;;;;;;;1.55;1.45;;;;;;;19.58;42.86;100418.22;5144357;28;20079;-46
2022/04/24 03:58:31;;;;;;;1.60;1.50;;;;;;;19.67;42.89;100430.66;5143784;28;20031;-46
2022/04/24 04:00:57;;;;;;;1.50;1.40;;;;;;;19.58;43.13;100419.09;5144626;28;20023;-45
2022/04/24 04:03:22;;;;;;;1.70;1.35;;;;;;;19.67;43.16;100434.19;5108844;28;20059;-51
2022/04/24 04:05:47;;;;;;;1.42;1.33;;;;;;;19.66;42.82;100432.47;5125894;28;20064;-45
2022/04/24 04:08:13;;;;;;;1.30;1.20;;;;;;;19.57;42.89;100427.34;5143994;28;20030;-47
2022/04/24 04:10:38;;;;;;;1.35;1.25;;;;;;;19.65;43.10;100441.59;5126106;28;20023;-47
2022/04/24 04:13:07;;;;;;;1.30;1.20;;;;;;;19.65;42.85;100441.59;5125147;28;20019;-48
2022/04/24 04:15:33;;;;;;;;;;;;;;;19.60;43.18;100438.59;5144911;28;20027;-50
2022/04/24 04:17:58;;;;;;;1.38;1.27;;;;;;;19.51;43.11;100426.22;5144456;28;19912;-47
2022/04/24 04:20:23;;;;;;;1.58;1.48;;;;;;;19.49;42.84;100418.31;5128740;27;20031;-46
2022/04/24 04:22:51;;;;;;;1.40;1.30;;;;;;;19.52;42.96;100427.06;5129696;27;20087;-49
2022/04/24 04:25:18;;;;;;;1.33;1.17;;;;;;;19.60;42.73;100441.28;5148480;27;20022;-47
2022/04/24 04:27:43;;;;;;;1.58;1.40;;;;;;;19.51;43.10;100433.47;5147580;27;20023;-46
2022/04/24 04:30:09;;;;;;;1.83;1.50;;;;;;;19.60;42.87;100445.84;5148256;27;20026;-45
2022/04/24 04:32:35;;;;;;;1.50;1.30;;;;;;;19.60;42.71;100453.94;5129951;27;20027;-51
2022/04/24 04:35:01;;;;;;;1.38;1.27;;;;;;;19.49;42.52;100428.25;5129579;27;20054;-45
2022/04/24 04:37:26;;;;;;;1.70;1.30;;;;;;;19.58;42.98;100454.16;5129698;27;20023;-45
2022/04/24 04:39:51;;;;;;;1.58;1.48;;;;;;;19.59;42.99;100460.38;5147262;27;20096;-47
2022/04/24 04:42:16;;;;;;;1.65;1.30;;;;;;;19.59;42.91;100463.06;5147416;27;20046;-48
2022/04/24 04:44:43;;;;;;;1.10;1.00;;;;;;;19.49;42.78;100449.81;5147792;27;20081;-46
2022/04/24 04:47:08;;;;;;;1.52;1.42;;;;;;;19.58;43.09;100466.75;5146749;27;20038;-46
2022/04/24 04:49:33;;;;;;;1.30;1.20;;;;;;;19.56;42.70;100456.16;5147174;27;20369;-46
2022/04/24 04:51:58;;;;;;;1.55;1.42;;;;;;;19.47;42.81;100444.63;5137408;27;20015;-45
2022/04/24 04:54:24;;;;;;;1.10;1.00;;;;;;;19.56;42.89;100458.88;5108069;27;20023;-44
2022/04/24 04:56:49;;;;;;;1.40;1.20;;;;;;;19.55;43.01;100465.28;5144730;27;20083;-44
2022/04/24 04:59:14;;;;;;;1.40;1.20;;;;;;;19.52;42.65;100456.72;5125653;27;20026;-47
2022/04/24 05:01:39;;;;;;;1.48;1.30;;;;;;;19.55;42.85;100469.84;5126303;27;20103;-55
2022/04/24 05:04:05;;;;;;;1.45;1.33;;;;;;;19.45;42.79;100462.00;5124953;27;20059;-50
2022/04/24 05:06:30;;;;;;;0.98;0.98;;;;;;;19.55;43.09;100478.78;5123754;27;20657;-49
2022/04/24 05:08:55;;;;;;;1.45;1.35;;;;;;;19.55;43.03;100472.53;5127685;27;20104;-45
2022/04/24 05:11:20;;;;;;;1.38;1.27;;;;;;;19.55;42.85;100477.94;5147133;27;20076;-47
2022/04/24 05:13:46;;;;;;;1.48;1.20;;;;;;;19.54;42.90;100481.63;5127883;27;20023;-47
2022/04/24 05:16:12;;;;;;;1.05;0.90;;;;;;;19.53;43.14;100483.50;5128678;27;20193;-48
2022/04/24 05:18:37;;;;;;;1.38;1.20;;;;;;;19.42;43.07;100463.22;5128818;27;20057;-48
2022/04/24 05:21:02;;;;;;;1.35;1.25;;;;;;;19.53;43.29;100490.75;5128251;27;20031;-58
2022/04/24 05:23:27;;;;;;;1.20;1.10;;;;;;;19.52;42.89;100481.81;5137914;27;20186;-53
2022/04/24 05:25:53;;;;;;;1.38;1.17;;;;;;;19.43;43.01;100470.28;5126048;27;20023;-55
2022/04/24 05:28:18;;;;;;;1.63;1.17;;;;;;;19.51;43.43;100487.41;5108538;27;20050;-57
2022/04/24 05:30:43;;;;;;;1.23;1.13;;;;;;;19.53;43.26;100496.97;5143775;27;20035;-55
2022/04/24 05:33:08;;;;;;;1.65;1.55;;;;;;;19.52;43.47;100492.59;5125844;27;20031;-58
2022/04/24 05:35:34;;;;;;;2.08;1.20;;;;;;;19.51;43.48;100493.63;5143653;27;20094;-57
2022/04/24 05:37:59;;;;;;;1.45;1.10;;;;;;;19.52;43.48;100503.41;5125673;27;20107;-57
2022/04/24 05:40:24;;;;;;;1.35;1.25;;;;;;;19.52;43.82;100497.16;5121828;27;20231;-57
2022/04/24 05:42:54;;;;;;;1.42;1.15;;;;;;;19.52;43.91;100500.69;5140673;27;20546;-58
2022/04/24 05:45:22;;;;;;;2.00;1.55;;;;;;;19.51;43.86;100507.13;5108554;27;20027;-50
2022/04/24 05:47:48;;;;;;;1.50;1.30;;;;;;;19.40;43.75;100492.19;5105452;27;20086;-48
2022/04/24 05:50:14;;;;;;;1.10;1.00;;;;;;;19.50;44.13;100502.75;5107026;27;20275;-48
2022/04/24 05:52:40;;;;;;;1.33;1.23;;;;;;;19.40;44.23;100497.59;5143583;27;20023;-45
2022/04/24 05:55:05;;;;;;;1.92;1.10;;;;;;;19.49;44.02;100509.97;5108347;27;20058;-49
2022/04/24 05:57:31;;;;;;;1.23;1.10;;;;;;;19.48;44.23;100510.16;5123125;27;20107;-58
2022/04/24 05:59:57;;;;;;;1.33;1.23;;;;;;;19.52;44.14;100518.75;5143281;27;20057;-51
2022/04/24 06:02:23;;;;;;;1.33;1.20;;;;;;;19.53;44.29;100515.00;5124060;27;20108;-49
2022/04/24 06:04:48;;;;;;;1.35;1.20;;;;;;;19.53;44.22;100505.06;5121874;27;20685;-52
2022/04/24 06:07:13;;;;;;;1.40;1.30;;;;;;;19.54;44.01;100506.75;5143644;27;20054;-49
2022/04/24 06:09:39;;;;;;;1.50;1.30;;;;;;;19.53;43.96;100513.16;5122367;27;20038;-51
2022/04/24 06:12:05;;;;;;;1.30;1.20;;;;;;;19.55;44.23;100516.53;5089807;27;20130;-50
2022/04/24 06:14:30;;;;;;;1.58;1.40;;;;;;;19.55;44.29;100515.69;5103430;27;20052;-50
2022/04/24 06:16:56;;;;;;;1.63;1.23;;;;;;;19.55;44.07;100510.28;5107294;27;20079;-48
2022/04/24 06:19:21;;;;;;;1.75;1.15;;;;;;;19.45;44.20;100494.34;5123348;27;20103;-47
2022/04/24 06:21:46;;;;;;;2.00;1.00;;;;;;;19.54;44.38;100503.19;5119008;27;20019;-49
2022/04/24 06:24:11;;;;;;;1.35;1.25;;;;;;;19.55;44.18;100511.13;5141886;27;20031;-46
2022/04/24 06:26:37;;;;;;;2.15;1.50;;;;;;;19.56;43.84;100511.97;5139240;27;20015;-47
2022/04/24 06:29:02;;;;;;;1.70;1.42;;;;;;;19.48;43.52;100496.69;5105853;27;20118;-50
2022/04/24 06:31:28;;;;;;;2.17;1.60;;;;;;;19.47;43.32;100500.41;5142373;27;20019;-48
2022/04/24 06:33:53;;;;;;;2.08;1.70;;;;;;;19.57;42.89;100514.47;5141131;27;20037;-47
2022/04/24 06:36:19;;;;;;;1.95;1.63;;;;;;;19.49;42.44;100501.88;5143122;27;20113;-48
2022/04/24 06:38:44;;;;;;;1.67;1.52;;;;;;;19.47;42.50;100495.03;5144376;27;20030;-43
2022/04/24 06:41:09;;;;;;;1.73;1.63;;;;;;;19.58;42.70;100518.00;5087380;28;20055;-45
2022/04/24 06:43:34;;;;;;;1.65;1.52;;;;;;;19.51;42.35;100495.50;5097669;28;20027;-42
2022/04/24 06:45:59;;;;;;;1.63;1.52;;;;;;;19.60;42.52;100511.41;5101933;28;20035;-45
2022/04/24 06:48:25;;;;;;;2.45;1.70;;;;;;;19.63;41.95;100516.47;5080279;28;20031;-46
2022/04/24 06:50:50;;;;;;;1.92;1.63;;;;;;;19.64;42.08;100514.63;5082026;28;20040;-46
2022/04/24 06:53:18;;;;;;;2.53;1.42;;;;;;;19.57;41.87;100497.44;5091099;28;20080;-48
2022/04/24 06:55:45;;;;;;;2.38;1.77;;;;;;;19.66;41.65;100516.09;5102993;28;20039;-49
2022/04/24 06:58:12;;;;;;;1.95;1.50;;;;;;;19.70;41.67;100517.41;5097844;28;20020;-50
2022/04/24 07:00:39;;;;;;;2.20;1.67;;;;;;;19.73;41.45;100514.34;5099250;28;20051;-48
2022/04/24 07:03:10;;;;;;;2.13;1.50;;;;;;;19.77;41.29;100519.38;5097939;28;20049;-48
2022/04/24 07:05:35;;;;;;;1.60;1.50;;;;;;;19.68;41.10;100515.94;5102596;28;20110;-49
2022/04/24 07:08:00;;;;;;;1.90;1.60;;;;;;;19.76;41.24;100515.84;5103280;28;20647;-45
2022/04/24 07:10:25;;;;;;;1.60;1.40;;;;;;;19.76;40.87;100526.66;5102964;28;20114;-46
2022/04/24 07:12:52;;;;;;;1.88;1.65;;;;;;;19.78;41.03;100534.53;5101084;28;20078;-45
2022/04/24 07:15:19;;;;;;;2.20;1.63;;;;;;;19.76;40.68;100526.66;5085542;28;20181;-49
2022/04/24 07:17:45;;;;;;;1.80;1.70;;;;;;;19.77;41.25;100530.19;5102469;28;20136;-48
2022/04/24 07:20:12;;;;;;;2.75;1.50;;;;;;;19.75;41.18;100530.34;5101936;28;20020;-49
2022/04/24 07:22:47;;;;;;;2.10;1.48;;;;;;;19.77;41.35;100528.31;5102845;28;20019;-49
2022/04/24 07:25:18;;;;;;;2.03;1.35;;;;;;;19.77;41.64;100528.31;5102816;28;20105;-49
2022/04/24 07:27:44;;;;;;;1.73;1.23;;;;;;;19.76;41.87;100525.81;5103044;28;20099;-49
2022/04/24 07:30:13;;;;;;;2.28;1.40;;;;;;;19.76;41.96;100523.13;5102675;28;20098;-49
2022/04/24 07:32:46;;;;;;;3.33;1.25;;;;;;;19.77;41.88;100527.47;5102526;28;20461;-51
2022/04/24 07:35:14;;;;;;;2.03;1.73;;;;;;;19.64;41.75;100514.63;5103204;28;20373;-48
2022/04/24 07:37:39;;;;;;;1.98;1.20;;;;;;;19.63;41.76;100515.66;5102342;28;20366;-49
2022/04/24 07:40:06;;;;;;;1.98;1.33;;;;;;;19.72;42.04;100536.13;5110035;27;20107;-51
2022/04/24 07:42:32;;;;;;;1.48;1.20;;;;;;;19.72;42.20;100533.44;5108203;27;20023;-47
2022/04/24 07:44:57;;;;;;;1.50;1.00;;;;;;;19.61;41.95;100517.69;5144225;27;20111;-50
2022/04/24 07:47:22;;;;;;;2.08;1.10;;;;;;;19.72;41.90;100533.44;5143070;28;20019;-51
2022/04/24 07:49:48;;;;;;;1.67;1.55;;;;;;;19.70;42.15;100532.75;5143935;28;20027;-49
2022/04/24 07:52:13;;;;;;;1.38;1.13;;;;;;;19.61;42.11;100518.50;5144649;27;20041;-50
2022/04/24 07:54:38;;;;;;;1.77;1.48;;;;;;;19.71;42.18;100529.06;5146642;27;20031;-48
2022/04/24 07:57:05;;;;;;;1.52;1.27;;;;;;;19.59;42.24;100503.53;5148349;27;20078;-49
2022/04/24 07:59:30;;;;;;;1.98;1.30;;;;;;;19.70;42.33;100522.78;5148956;27;20019;-49
2022/04/24 08:01:55;;;;;;;2.00;1.35;;;;;;;19.70;42.10;100522.78;5148690;27;20037;-46
2022/04/24 08:04:21;;;;;;;1.58;1.27;;;;;;;19.70;42.21;100521.97;5148052;27;20015;-47
2022/04/24 08:06:46;;;;;;;1.70;1.30;;;;;;;19.70;42.23;100536.28;5147659;27;20027;-46
2022/04/24 08:09:11;;;;;;;1.40;1.30;;;;;;;19.70;42.02;100530.88;5148244;27;20058;-49
2022/04/24 08:11:36;;;;;;;1.77;1.40;;;;;;;19.69;42.49;100531.91;5147466;27;20113;-47
2022/04/24 08:14:02;;;;;;;1.42;1.10;;;;;;;19.70;42.04;100527.34;5146174;27;20068;-52
2022/04/24 08:16:27;;;;;;;1.60;1.30;;;;;;;19.68;42.12;100526.72;5148810;27;20019;-51
2022/04/24 08:18:52;;;;;;;1.70;1.23;;;;;;;19.69;41.98;100528.38;5148330;27;20034;-48
2022/04/24 08:21:18;;;;;;;1.88;1.42;;;;;;;19.69;42.05;100536.47;5146789;27;20083;-51
2022/04/24 08:23:43;;;;;;;1.38;1.08;;;;;;;19.69;42.43;100536.47;5129657;27;20027;-48
2022/04/24 08:26:10;;;;;;;1.85;1.40;;;;;;;19.68;42.07;100537.50;5148621;27;20097;-49
2022/04/24 08:28:35;;;;;;;1.35;1.25;;;;;;;19.68;42.45;100538.34;5146318;27;20030;-50
2022/04/24 08:31:00;;;;;;;1.30;1.20;;;;;;;19.60;42.20;100519.50;5147296;27;20023;-48
2022/04/24 08:33:26;;;;;;;1.60;1.20;;;;;;;19.70;42.21;100538.97;5148195;27;20027;-52
2022/04/24 08:35:51;;;;;;;1.88;1.15;;;;;;;19.70;42.50;100530.88;5147894;27;20075;-48
2022/04/24 08:38:17;;;;;;;1.13;1.02;;;;;;;19.70;42.25;100536.28;5146416;27;20023;-48
2022/04/24 08:40:42;;;;;;;0.90;0.90;;;;;;;19.64;41.94;100528.09;5148090;27;20055;-49
2022/04/24 08:43:08;;;;;;;1.20;1.10;;;;;;;19.73;42.20;100538.63;5131087;27;20753;-46
2022/04/24 08:45:34;;;;;;;1.13;1.02;;;;;;;19.66;42.23;100523.34;5137163;27;20038;-47
2022/04/24 08:47:59;;;;;;;1.17;1.08;;;;;;;19.76;42.16;100540.13;5147979;27;20025;-47
2022/04/24 08:50:29;;;;;;;1.23;1.13;;;;;;;19.78;41.98;100534.53;5147532;27;20027;-48
2022/04/24 08:52:58;;;;;;;1.13;1.02;;;;;;;19.78;42.14;100548.88;5146326;27;20015;-46
2022/04/24 08:55:28;;;;;;;1.35;1.20;;;;;;;19.79;42.14;100536.22;5146455;27;20027;-49
2022/04/24 08:57:54;;;;;;;1.38;1.10;;;;;;;19.67;42.20;100523.19;5147099;27;20026;-47
2022/04/24 09:00:20;;;;;;;1.48;1.10;;;;;;;19.79;41.89;100538.91;5147879;27;20062;-46
2022/04/24 09:02:46;;;;;;;1.38;1.13;;;;;;;19.80;42.20;100544.13;5146461;27;20193;-49
2022/04/24 09:05:12;;;;;;;1.35;1.20;;;;;;;19.80;42.22;100544.13;5144889;27;20035;-49
2022/04/24 09:07:39;;;;;;;1.75;1.10;;;;;;;19.81;41.73;100539.59;5146123;27;20023;-49
2022/04/24 09:10:11;;;;;;;1.67;1.00;;;;;;;19.80;41.82;100546.00;5145736;27;20023;-48
2022/04/24 09:12:37;;;;;;;1.10;1.00;;;;;;;19.71;42.10;100521.81;5145680;27;20034;-47
2022/04/24 09:15:04;;;;;;;1.17;1.08;;;;;;;19.72;42.11;100533.44;5128894;27;20039;-50
2022/04/24 09:17:33;;;;;;;2.10;1.10;;;;;;;19.82;42.13;100541.25;5146306;27;20066;-47
2022/04/24 09:19:59;;;;;;;1.08;0.98;;;;;;;19.81;42.06;100551.19;5145333;27;20034;-48
2022/04/24 09:22:24;;;;;;;1.83;1.58;;;;;;;19.82;41.83;100547.47;5146250;27;20460;-48
2022/04/24 09:24:52;;;;;;;1.20;1.00;;;;;;;19.82;41.97;100541.25;5146017;27;20034;-48
2022/04/24 09:27:30;;;;;;;1.42;1.33;;;;;;;19.81;41.69;100543.13;5145494;27;20030;-51
2022/04/24 09:30:04;;;;;;;1.48;0.88;;;;;;;19.82;41.68;100544.78;5145569;27;20046;-51
2022/04/24 09:32:31;;;;;;;0.80;0.80;;;;;;;19.82;42.09;100550.19;5128623;27;20024;-46
2022/04/24 09:34:57;;;;;;;1.13;1.00;;;;;;;19.78;41.85;100538.06;5145335;27;20031;-47
2022/04/24 09:37:23;;;;;;;0.80;0.77;;;;;;;19.83;41.93;100551.84;5145929;27;20043;-51
2022/04/24 09:39:49;;;;;;;1.38;1.10;;;;;;;19.83;41.83;100551.84;5146409;27;20058;-46
2022/04/24 09:42:17;;;;;;;1.92;1.40;;;;;;;19.83;42.22;100540.22;5120881;27;20492;-47
2022/04/24 09:44:49;;;;;;;1.75;1.08;;;;;;;19.84;42.08;100548.16;5128340;27;20054;-50
2022/04/24 09:47:25;;;;;;;1.35;1.05;;;;;;;19.85;41.94;100543.59;5145817;27;20050;-46
2022/04/24 09:49:52;;;;;;;1.30;1.20;;;;;;;19.83;42.37;100542.91;5146198;27;20027;-49
2022/04/24 09:52:25;;;;;;;1.45;1.35;;;;;;;19.83;42.31;100542.91;5145692;27;20049;-51
2022/04/24 09:54:53;;;;;;;1.13;1.02;;;;;;;19.84;41.97;100555.41;5128391;27;20027;-48
2022/04/24 09:57:22;;;;;;;1.58;1.13;;;;;;;19.82;42.17;100557.44;5144946;27;20421;-47
2022/04/24 09:59:48;;;;;;;1.25;1.05;;;;;;;19.70;42.38;100528.19;5146507;27;20023;-46
2022/04/24 10:02:15;;;;;;;1.25;1.15;;;;;;;19.74;42.21;100542.16;5145375;27;20027;-47
2022/04/24 10:04:41;;;;;;;1.13;1.02;;;;;;;19.85;42.45;100559.78;5144375;27;20472;-50
2022/04/24 10:07:08;;;;;;;1.58;1.30;;;;;;;19.86;42.29;100553.34;5146549;27;20034;-48
2022/04/24 10:09:35;;;;;;;1.17;1.08;;;;;;;19.86;42.22;100558.75;5144681;27;20038;-46
2022/04/24 10:12:05;;;;;;;0.98;0.90;;;;;;;19.85;42.58;100555.22;5145935;27;20037;-51
2022/04/24 10:14:32;;;;;;;1.42;1.10;;;;;;;19.86;42.38;100559.59;5144681;27;20027;-47
2022/04/24 10:17:04;;;;;;;1.20;1.10;;;;;;;19.87;42.36;100549.63;5144945;27;20027;-47
2022/04/24 10:19:48;;;;;;;1.42;1.10;;;;;;;19.89;42.37;100555.69;5127387;27;20122;-50
2022/04/24 10:22:24;;;;;;;1.20;1.02;;;;;;;19.89;42.71;100555.69;5144798;27;20046;-48
2022/04/24 10:24:58;;;;;;;1.10;1.00;;;;;;;19.89;42.47;100561.91;5127258;27;20458;-48
2022/04/24 10:27:35;;;;;;;1.33;1.13;;;;;;;19.86;42.84;100558.75;5144114;27;20041;-49
2022/04/24 10:30:00;;;;;;;0.93;0.90;;;;;;;19.90;42.42;100551.97;5144266;27;20041;-49
2022/04/24 10:32:32;;;;;;;1.10;1.00;;;;;;;19.85;42.46;100551.69;5146183;27;20059;-49
2022/04/24 10:34:59;;;;;;;1.10;1.00;;;;;;;19.90;42.42;100560.88;5144038;27;20039;-51
2022/04/24 10:37:29;;;;;;;1.60;1.38;;;;;;;19.89;42.45;100550.28;5144479;27;20031;-48
2022/04/24 10:39:58;;;;;;;1.20;1.10;;;;;;;19.82;42.66;100541.25;5145207;27;20047;-48
2022/04/24 10:42:34;;;;;;;1.07;0.97;;;;;;;19.93;42.93;100557.84;5135779;27;20031;-46
2022/04/24 10:45:13;;;;;;;1.23;0.82;;;;;;;19.85;42.86;100538.19;5145403;27;20078;-51
2022/04/24 10:47:45;;;;;;;1.25;0.95;;;;;;;19.94;42.45;100555.97;5144830;27;20090;-50
2022/04/24 10:50:10;;;;;;;1.02;0.93;;;;;;;19.95;42.80;100557.63;5143790;27;20027;-46
2022/04/24 10:52:45;;;;;;;1.13;0.90;;;;;;;19.85;42.73;100533.63;5127072;27;20090;-48
2022/04/24 10:55:16;;;;;;;1.00;0.90;;;;;;;19.97;42.85;100559.16;5143900;27;20030;-47
2022/04/24 10:57:43;;;;;;;1.67;1.20;;;;;;;19.98;42.75;100555.41;5143525;27;20027;-47
2022/04/24 11:00:19;;;;;;;1.30;1.00;;;;;;;19.89;42.66;100536.81;5144079;27;20023;-47
2022/04/24 11:02:44;;;;;;;1.55;0.98;;;;;;;19.98;42.71;100555.41;5145425;27;20031;-47
2022/04/24 11:05:10;;;;;;;1.25;1.02;;;;;;;20.01;42.61;100556.06;5143357;27;20023;-46
2022/04/24 11:07:36;;;;;;;0.85;0.85;;;;;;;20.01;42.52;100556.91;5145293;27;20027;-48
2022/04/24 11:10:06;;;;;;;1.23;1.13;;;;;;;20.03;43.07;100554.84;5144794;27;20027;-49
2022/04/24 11:12:32;;;;;;;1.10;1.00;;;;;;;20.04;42.83;100558.41;5125996;27;20027;-49
2022/04/24 11:15:02;;;;;;;0.75;0.75;;;;;;;20.05;42.92;100555.53;5143724;27;20088;-49
2022/04/24 11:17:28;;;;;;;1.17;1.08;;;;;;;20.04;43.17;100553.00;5145286;27;20023;-49
2022/04/24 11:19:59;;;;;;;1.52;1.00;;;;;;;20.08;42.85;100554.31;5144610;27;20030;-48